Wicomico Church, Virginia
Current Conditions -  °F | °C
As of 6:55 AM on Monday 24 Nov 2014 (Local Time) from KW75 Reporting Station
Broken Clouds Broken Clouds  
Wind Chill: 66°   Ceiling: 2300
Heat Index: 66°   Visibility: 10mi
Dew Point: 63°   Wind: 10mph
Humidity: 92%   Direction: 190°S
Pressure: 29.74"   Gusts: 16mph
Location:  37.82°N, 76.38°W
Report Text: KW75 241155Z AUTO 19009G14KT 150V210 10SM SCT014 BKN023 BKN035 19/17 A2974 RMK AO1 60013 70031 T01870174 10192 20167
Loading
Personal Weather Stations






























Interactive Weather Map New forecast layout! Learn more

10-Day Weather Forecast

Advertisements
Track Severe Weather on mobile